Terminal Aerodrome Forecast
Issued by NWS

Home | Current Version | Previous Version | Text Only | Print | Product List | Glossary Off
Versions: 1 2 3 4 5 6 7 8 9 10 11 12 13 14 15 16 17 18 19 20 21 22 23 24 25

474
FTUS43 KABR 220419 AAB
TAFPIR
TAF AMD
KPIR 220419Z 2204/2224 34011KT P6SM SCT110
     FM221600 29011KT P6SM SCT200
     FM221800 30015G23KT P6SM SCT250
     FM222300 34012KT P6SM BKN080=

USA.gov is the U.S. government's official web portal to all federal, state and local government web resources and services.